createdAt,value
2022-10-08T00:01:20.575Z,14.80
2022-10-08T00:03:51.129Z,14.80
2022-10-08T00:06:24.161Z,14.80
2022-10-08T00:08:53.435Z,14.80
2022-10-08T00:11:31.688Z,14.80
2022-10-08T00:13:58.960Z,14.70
2022-10-08T00:16:48.146Z,14.70
2022-10-08T00:19:16.054Z,14.60
2022-10-08T00:21:46.033Z,14.60
2022-10-08T00:24:15.538Z,14.60
2022-10-08T00:26:44.271Z,14.50
2022-10-08T00:29:14.563Z,14.60
2022-10-08T00:31:44.452Z,14.50
2022-10-08T00:34:18.225Z,14.50
2022-10-08T00:36:45.608Z,14.50
2022-10-08T00:39:18.648Z,14.50
2022-10-08T00:41:49.321Z,14.50
2022-10-08T00:44:43.121Z,14.50
2022-10-08T00:47:23.122Z,14.50
2022-10-08T00:49:56.295Z,14.50
2022-10-08T00:52:26.872Z,14.40
2022-10-08T00:54:54.602Z,14.30
2022-10-08T00:57:22.627Z,14.30
2022-10-08T00:59:49.963Z,14.30
2022-10-08T01:02:19.970Z,14.20
2022-10-08T01:04:47.754Z,14.20
2022-10-08T01:07:29.910Z,14.20
2022-10-08T01:10:23.759Z,14.20
2022-10-08T01:13:19.965Z,14.20
2022-10-08T01:15:59.027Z,14.20
2022-10-08T01:18:53.073Z,14.10
2022-10-08T01:21:40.479Z,14.10
2022-10-08T01:24:07.631Z,14.10
2022-10-08T01:26:51.606Z,14.10
2022-10-08T01:29:22.528Z,14.10
2022-10-08T01:32:01.219Z,14.10
2022-10-08T01:34:40.205Z,14.00
2022-10-08T01:37:11.880Z,14.00
2022-10-08T01:39:40.744Z,14.00
2022-10-08T01:42:11.009Z,13.90
2022-10-08T01:44:48.948Z,13.90
2022-10-08T01:47:21.781Z,13.90
2022-10-08T01:49:53.203Z,13.90
2022-10-08T01:52:33.460Z,13.90
2022-10-08T01:55:08.374Z,13.80
2022-10-08T01:57:37.980Z,13.80
2022-10-08T02:00:08.876Z,13.70
2022-10-08T02:02:38.633Z,13.70
2022-10-08T02:05:06.670Z,13.70
2022-10-08T02:07:38.006Z,13.70
2022-10-08T02:10:16.931Z,13.70
2022-10-08T02:12:45.284Z,13.70
2022-10-08T02:15:36.317Z,13.60
2022-10-08T02:18:17.968Z,13.60
2022-10-08T02:20:55.268Z,13.60
2022-10-08T02:23:37.973Z,13.60
2022-10-08T02:26:20.118Z,13.50
2022-10-08T02:29:01.064Z,13.50
2022-10-08T02:31:52.339Z,13.60
2022-10-08T02:34:44.664Z,13.70
2022-10-08T02:37:20.293Z,13.70
2022-10-08T02:39:53.661Z,13.70
2022-10-08T02:42:24.360Z,13.70
2022-10-08T02:45:06.572Z,13.70
2022-10-08T02:47:38.683Z,13.70
2022-10-08T02:50:11.957Z,13.70
2022-10-08T02:52:43.579Z,13.70
2022-10-08T02:55:34.364Z,13.70
2022-10-08T02:58:06.199Z,13.70
2022-10-08T03:00:39.166Z,13.70
2022-10-08T03:03:15.458Z,13.70
2022-10-08T03:05:43.856Z,13.70
2022-10-08T03:08:13.674Z,13.70
2022-10-08T03:10:43.708Z,13.70
2022-10-08T03:13:12.639Z,13.70
2022-10-08T03:15:42.750Z,13.70
2022-10-08T03:18:12.362Z,13.70
2022-10-08T03:20:49.918Z,13.70
2022-10-08T03:23:18.888Z,13.70
2022-10-08T03:25:46.360Z,13.70
2022-10-08T03:28:15.638Z,13.60
2022-10-08T03:30:42.916Z,13.60
2022-10-08T03:33:12.877Z,13.60
2022-10-08T03:35:45.466Z,13.60
2022-10-08T03:38:14.513Z,13.50
2022-10-08T03:40:53.017Z,13.50
2022-10-08T03:43:20.408Z,13.50
2022-10-08T03:45:52.402Z,13.50
2022-10-08T03:48:21.682Z,13.50
2022-10-08T03:50:54.201Z,13.40
2022-10-08T03:53:24.635Z,13.40
2022-10-08T03:55:52.490Z,13.40
2022-10-08T03:58:19.962Z,13.40
2022-10-08T04:00:58.572Z,13.30
2022-10-08T04:03:26.862Z,13.40
2022-10-08T04:05:56.874Z,13.30
2022-10-08T04:08:24.230Z,13.30
2022-10-08T04:10:52.001Z,13.30
2022-10-08T04:13:19.759Z,13.30
2022-10-08T04:15:49.314Z,13.40
2022-10-08T04:18:17.454Z,13.40
2022-10-08T04:20:44.780Z,13.40
2022-10-08T04:23:12.558Z,13.40
2022-10-08T04:25:49.342Z,13.40
2022-10-08T04:28:16.462Z,13.30
2022-10-08T04:30:43.981Z,13.30
2022-10-08T04:33:13.467Z,13.30
2022-10-08T04:35:40.517Z,13.30
2022-10-08T04:38:10.182Z,13.20
2022-10-08T04:40:37.310Z,13.10
2022-10-08T04:43:04.301Z,13.10
2022-10-08T04:45:31.640Z,12.90
2022-10-08T04:48:01.074Z,12.90
2022-10-08T04:50:28.100Z,12.80
2022-10-08T04:52:57.849Z,12.80
2022-10-08T04:55:25.057Z,12.80
2022-10-08T04:57:52.212Z,12.80
2022-10-08T05:00:19.805Z,12.70
2022-10-08T05:02:47.325Z,12.70
2022-10-08T05:05:14.599Z,12.70
2022-10-08T05:07:46.749Z,12.70
2022-10-08T05:10:16.042Z,12.70
2022-10-08T05:12:43.800Z,12.80
2022-10-08T05:15:13.194Z,12.80
2022-10-08T05:17:44.901Z,12.80
2022-10-08T05:20:14.675Z,12.80
2022-10-08T05:22:44.646Z,12.80
2022-10-08T05:25:12.102Z,12.80
2022-10-08T05:27:39.535Z,12.90
2022-10-08T05:30:07.322Z,12.90
2022-10-08T05:32:34.582Z,13.00
2022-10-08T05:35:01.767Z,13.10
2022-10-08T05:37:28.933Z,13.20
2022-10-08T05:39:56.154Z,13.30
2022-10-08T05:42:26.028Z,13.40
2022-10-08T05:44:53.222Z,13.50
2022-10-08T05:47:20.544Z,13.60
2022-10-08T05:49:49.972Z,13.70
2022-10-08T05:52:17.391Z,13.80
2022-10-08T05:54:44.597Z,13.90
2022-10-08T05:57:11.721Z,14.10
2022-10-08T05:59:38.722Z,14.30
2022-10-08T06:02:06.633Z,14.60
2022-10-08T06:04:36.588Z,14.80
2022-10-08T06:07:03.707Z,15.10
2022-10-08T06:09:31.072Z,15.80
2022-10-08T06:11:58.310Z,17.30
2022-10-08T06:14:25.306Z,19.00
2022-10-08T06:16:52.580Z,20.10
2022-10-08T06:19:20.042Z,21.10
2022-10-08T06:21:47.522Z,22.00
2022-10-08T06:24:14.953Z,23.00
2022-10-08T06:26:44.026Z,22.70
2022-10-08T06:29:17.383Z,22.10
2022-10-08T06:31:46.157Z,22.10
2022-10-08T06:34:15.489Z,22.90
2022-10-08T06:36:42.568Z,23.70
2022-10-08T06:39:12.835Z,23.40
2022-10-08T06:41:39.933Z,23.50
2022-10-08T06:44:14.677Z,23.00
2022-10-08T06:46:45.372Z,23.50
2022-10-08T06:49:13.069Z,22.80
2022-10-08T06:51:40.358Z,21.70
2022-10-08T06:54:08.748Z,21.50
2022-10-08T06:56:41.795Z,21.70
2022-10-08T06:59:09.451Z,21.30
2022-10-08T07:01:36.886Z,20.90
2022-10-08T07:04:05.229Z,20.90
2022-10-08T07:06:32.962Z,21.10
2022-10-08T07:09:03.313Z,20.30
2022-10-08T07:11:31.358Z,19.70
2022-10-08T07:13:59.316Z,19.20
2022-10-08T07:16:29.865Z,18.80
2022-10-08T07:18:57.763Z,18.70
2022-10-08T07:21:28.865Z,19.00
2022-10-08T07:23:56.557Z,19.70
2022-10-08T07:26:26.766Z,20.30
2022-10-08T07:28:55.693Z,20.80
2022-10-08T07:31:26.432Z,21.10
2022-10-08T07:33:53.979Z,21.10
2022-10-08T07:36:23.740Z,21.70
2022-10-08T07:38:55.693Z,22.00
2022-10-08T07:41:23.869Z,21.90
2022-10-08T07:43:55.446Z,22.40
2022-10-08T07:46:25.191Z,23.20
2022-10-08T07:48:53.573Z,23.50
2022-10-08T07:51:21.010Z,23.10
2022-10-08T07:53:48.504Z,22.50
2022-10-08T07:56:17.920Z,21.90
2022-10-08T07:58:48.324Z,22.20
2022-10-08T08:01:21.531Z,22.70
2022-10-08T08:03:57.016Z,23.40
2022-10-08T08:06:26.733Z,23.80
2022-10-08T08:08:57.090Z,23.80
2022-10-08T08:11:24.931Z,23.80
2022-10-08T08:13:52.984Z,24.00
2022-10-08T08:16:23.148Z,23.30
2022-10-08T08:18:52.992Z,23.60
2022-10-08T08:21:29.010Z,24.80
2022-10-08T08:24:03.750Z,25.90
2022-10-08T08:26:33.130Z,26.30
2022-10-08T08:29:03.056Z,26.50
2022-10-08T08:31:33.017Z,26.00
2022-10-08T08:34:05.773Z,25.70
2022-10-08T08:36:36.181Z,26.30
2022-10-08T08:39:04.546Z,26.80
2022-10-08T08:41:38.101Z,26.90
2022-10-08T08:44:22.110Z,26.60
2022-10-08T08:47:00.034Z,26.10
2022-10-08T08:49:43.358Z,26.10
2022-10-08T08:52:13.491Z,25.00
2022-10-08T08:54:41.028Z,25.40
2022-10-08T08:57:31.250Z,26.60
2022-10-08T09:00:32.554Z,26.80
2022-10-08T09:03:06.634Z,25.30
2022-10-08T09:05:40.732Z,24.00
2022-10-08T09:08:11.040Z,22.80
2022-10-08T09:10:59.203Z,21.40
2022-10-08T09:13:44.108Z,20.60
2022-10-08T09:16:14.016Z,20.20
2022-10-08T09:18:51.708Z,20.40
2022-10-08T09:21:22.037Z,20.40
2022-10-08T09:23:49.101Z,20.30
2022-10-08T09:26:26.614Z,20.10
2022-10-08T09:28:59.400Z,20.20
2022-10-08T09:31:36.857Z,21.50
2022-10-08T09:34:12.458Z,23.00
2022-10-08T09:36:52.809Z,25.20
2022-10-08T09:39:23.592Z,28.90
2022-10-08T09:42:18.104Z,29.00
2022-10-08T09:44:46.936Z,27.30
2022-10-08T09:47:16.889Z,27.20
2022-10-08T09:49:45.185Z,27.50
2022-10-08T09:52:17.356Z,25.80
2022-10-08T09:55:08.545Z,24.70
2022-10-08T09:57:44.282Z,24.50
2022-10-08T10:00:28.422Z,24.20
2022-10-08T10:02:57.770Z,23.30
2022-10-08T10:05:31.140Z,23.10
2022-10-08T10:08:01.029Z,22.80
2022-10-08T10:10:45.615Z,21.80
2022-10-08T10:13:33.274Z,21.00
2022-10-08T10:16:11.518Z,20.20
2022-10-08T10:18:50.856Z,19.70
2022-10-08T10:21:35.162Z,19.10
2022-10-08T10:24:33.013Z,18.80
2022-10-08T10:27:08.290Z,18.50
2022-10-08T10:30:02.911Z,18.40
2022-10-08T10:33:10.782Z,18.40
2022-10-08T10:35:48.936Z,18.60
2022-10-08T10:38:20.696Z,18.60
2022-10-08T10:41:01.812Z,18.60
2022-10-08T10:43:48.188Z,18.50
2022-10-08T10:46:24.102Z,18.40
2022-10-08T10:48:51.235Z,18.00
2022-10-08T10:51:29.224Z,17.60
2022-10-08T10:54:38.139Z,17.30
2022-10-08T10:57:18.097Z,17.00
2022-10-08T10:59:52.799Z,16.60
2022-10-08T11:03:02.542Z,16.50
2022-10-08T11:05:33.380Z,16.50
2022-10-08T11:08:43.908Z,16.50
2022-10-08T11:11:18.002Z,16.50
2022-10-08T11:13:57.676Z,16.50
2022-10-08T11:16:38.519Z,16.50
2022-10-08T11:19:31.134Z,16.50
2022-10-08T11:22:05.972Z,16.60
2022-10-08T11:24:45.026Z,16.60
2022-10-08T11:27:40.220Z,16.50
2022-10-08T11:30:55.528Z,16.50
2022-10-08T11:33:25.949Z,16.50
2022-10-08T11:36:18.377Z,16.40
2022-10-08T11:38:57.510Z,16.30
2022-10-08T11:41:33.403Z,16.30
2022-10-08T11:44:04.291Z,16.30
2022-10-08T11:46:34.176Z,16.40
2022-10-08T11:49:22.997Z,16.50
2022-10-08T11:51:52.041Z,16.70
2022-10-08T11:54:32.635Z,16.80
2022-10-08T11:57:20.398Z,16.90
2022-10-08T12:00:01.075Z,17.00
2022-10-08T12:02:42.881Z,17.10
2022-10-08T12:05:50.042Z,17.20
2022-10-08T12:09:10.016Z,17.10
2022-10-08T12:11:37.052Z,17.20
2022-10-08T12:14:13.332Z,17.10
2022-10-08T12:16:56.134Z,17.00
2022-10-08T12:19:38.351Z,16.90
2022-10-08T12:22:28.285Z,16.90
2022-10-08T12:24:59.027Z,16.80
2022-10-08T12:27:32.146Z,16.90
2022-10-08T12:30:12.477Z,16.90
2022-10-08T12:32:42.464Z,16.90
2022-10-08T12:35:31.941Z,16.80
2022-10-08T12:38:36.715Z,16.70
2022-10-08T12:41:39.172Z,16.50
2022-10-08T12:44:18.482Z,16.40
2022-10-08T12:46:58.259Z,16.40
2022-10-08T12:49:34.392Z,16.30
2022-10-08T12:52:19.384Z,16.30
2022-10-08T12:54:57.873Z,16.20
2022-10-08T12:57:28.383Z,16.20
2022-10-08T12:59:57.263Z,16.20
2022-10-08T13:02:43.926Z,16.30
2022-10-08T13:05:38.825Z,16.30
2022-10-08T13:08:33.608Z,16.30
2022-10-08T13:11:07.951Z,16.30
2022-10-08T13:13:41.137Z,16.30
2022-10-08T13:16:11.438Z,16.30
2022-10-08T13:18:41.411Z,16.40
2022-10-08T13:21:33.013Z,16.40
2022-10-08T13:24:20.234Z,16.50
2022-10-08T13:26:54.014Z,16.60
2022-10-08T13:29:21.455Z,16.80
2022-10-08T13:32:02.205Z,16.90
2022-10-08T13:34:46.413Z,17.10
2022-10-08T13:37:16.012Z,17.20
2022-10-08T13:39:53.701Z,17.20
2022-10-08T13:42:25.073Z,17.10
2022-10-08T13:44:52.762Z,17.20
2022-10-08T13:47:22.236Z,17.10
2022-10-08T13:49:49.608Z,17.00
2022-10-08T13:52:20.156Z,16.90
2022-10-08T13:54:48.432Z,16.80
2022-10-08T13:57:17.936Z,16.80
2022-10-08T13:59:45.388Z,16.80
2022-10-08T14:02:14.485Z,16.80
2022-10-08T14:04:41.749Z,16.70
2022-10-08T14:07:26.781Z,16.70
2022-10-08T14:09:59.538Z,16.70
2022-10-08T14:12:30.186Z,16.70
2022-10-08T14:15:00.515Z,16.70
2022-10-08T14:17:27.971Z,16.60
2022-10-08T14:19:57.404Z,16.60
2022-10-08T14:22:27.063Z,16.50
2022-10-08T14:24:54.519Z,16.50
2022-10-08T14:27:21.563Z,16.50
2022-10-08T14:29:48.764Z,16.60
2022-10-08T14:32:18.590Z,16.60
2022-10-08T14:34:45.622Z,16.60
2022-10-08T14:37:12.837Z,16.50
2022-10-08T14:39:42.850Z,16.50
2022-10-08T14:42:09.893Z,16.50
2022-10-08T14:44:37.160Z,16.50
2022-10-08T14:47:04.762Z,16.50
2022-10-08T14:49:31.882Z,16.40
2022-10-08T14:51:58.942Z,16.40
2022-10-08T14:54:27.652Z,16.30
2022-10-08T14:56:54.667Z,16.30
2022-10-08T14:59:21.815Z,16.20
2022-10-08T15:01:49.208Z,16.20
2022-10-08T15:04:18.825Z,16.20
2022-10-08T15:06:46.145Z,16.20
2022-10-08T15:09:14.286Z,16.20
2022-10-08T15:11:41.407Z,16.10
2022-10-08T15:14:08.620Z,16.10
2022-10-08T15:16:36.296Z,16.00
2022-10-08T15:19:07.384Z,15.90
2022-10-08T15:21:35.060Z,15.90
2022-10-08T15:24:04.995Z,15.80
2022-10-08T15:26:32.048Z,15.70
2022-10-08T15:29:01.438Z,15.70
2022-10-08T15:31:31.422Z,15.70
2022-10-08T15:34:00.738Z,15.60
2022-10-08T15:36:34.766Z,15.60
2022-10-08T15:39:05.637Z,15.60
2022-10-08T15:41:36.027Z,15.60
2022-10-08T15:44:16.162Z,15.60
2022-10-08T15:46:43.341Z,15.50
2022-10-08T15:49:13.526Z,15.50
2022-10-08T15:51:41.069Z,15.50
2022-10-08T15:54:10.573Z,15.50
2022-10-08T15:56:37.919Z,15.50
2022-10-08T15:59:07.606Z,15.50
2022-10-08T16:01:34.622Z,15.50
2022-10-08T16:04:02.127Z,15.50
2022-10-08T16:06:36.227Z,15.50
2022-10-08T16:09:04.077Z,15.60
2022-10-08T16:11:33.554Z,15.60
2022-10-08T16:14:03.746Z,15.60
2022-10-08T16:16:31.323Z,15.50
2022-10-08T16:19:04.188Z,15.50
2022-10-08T16:21:33.695Z,15.50
2022-10-08T16:24:01.803Z,15.40
2022-10-08T16:26:30.025Z,15.40
2022-10-08T16:28:59.717Z,15.30
2022-10-08T16:31:30.517Z,15.20
2022-10-08T16:34:04.672Z,15.20
2022-10-08T16:36:35.609Z,15.10
2022-10-08T16:39:06.068Z,15.10
2022-10-08T16:41:35.883Z,15.00
2022-10-08T16:44:12.927Z,15.00
2022-10-08T16:46:47.558Z,15.00
2022-10-08T16:49:24.219Z,15.00
2022-10-08T16:51:54.774Z,14.90
2022-10-08T16:54:25.001Z,14.90
2022-10-08T16:56:54.610Z,14.90
2022-10-08T16:59:25.006Z,14.90
2022-10-08T17:01:54.079Z,14.90
2022-10-08T17:04:22.960Z,14.90
2022-10-08T17:06:50.933Z,14.80
2022-10-08T17:09:20.581Z,14.80
2022-10-08T17:11:47.995Z,14.80
2022-10-08T17:14:18.556Z,14.70
2022-10-08T17:16:46.041Z,14.70
2022-10-08T17:19:13.482Z,14.70
2022-10-08T17:21:41.548Z,14.60
2022-10-08T17:24:11.229Z,14.60
2022-10-08T17:26:39.218Z,14.50
2022-10-08T17:29:09.289Z,14.40
2022-10-08T17:31:37.054Z,14.30
2022-10-08T17:34:05.206Z,14.20
2022-10-08T17:36:37.690Z,14.00
2022-10-08T17:39:07.635Z,13.90
2022-10-08T17:41:39.280Z,13.80
2022-10-08T17:44:08.428Z,13.70
2022-10-08T17:46:38.769Z,13.60
2022-10-08T17:49:06.219Z,13.50
2022-10-08T17:51:34.071Z,13.40
2022-10-08T17:54:04.760Z,13.30
2022-10-08T17:56:32.526Z,13.20
2022-10-08T17:59:00.284Z,13.10
2022-10-08T18:01:33.845Z,13.10
2022-10-08T18:04:09.110Z,13.00
2022-10-08T18:06:41.006Z,13.00
2022-10-08T18:09:12.124Z,13.00
2022-10-08T18:11:42.329Z,12.90
2022-10-08T18:14:09.855Z,12.90
2022-10-08T18:16:37.069Z,12.90
2022-10-08T18:19:08.747Z,12.90
2022-10-08T18:21:38.616Z,12.90
2022-10-08T18:24:08.896Z,12.90
2022-10-08T18:26:38.643Z,13.00
2022-10-08T18:29:08.341Z,13.00
2022-10-08T18:34:16.483Z,13.00
2022-10-08T18:36:45.343Z,13.00
2022-10-08T18:39:15.383Z,13.10
2022-10-08T18:41:46.673Z,13.20
2022-10-08T18:44:20.043Z,13.10
2022-10-08T18:46:47.352Z,13.10
2022-10-08T18:49:17.614Z,13.00
2022-10-08T18:51:45.364Z,12.90
2022-10-08T18:54:12.990Z,12.90
2022-10-08T18:56:42.875Z,12.90
2022-10-08T18:59:14.923Z,12.80
2022-10-08T19:01:47.003Z,12.80
2022-10-08T19:04:22.149Z,12.80
2022-10-08T19:06:51.388Z,12.80
2022-10-08T19:09:23.751Z,12.80
2022-10-08T19:11:54.216Z,12.80
2022-10-08T19:14:22.530Z,12.70
2022-10-08T19:16:50.267Z,12.70
2022-10-08T19:19:20.401Z,12.70
2022-10-08T19:21:47.678Z,12.70
2022-10-08T19:24:17.775Z,12.60
2022-10-08T19:26:48.489Z,12.60
2022-10-08T19:29:18.325Z,12.60
2022-10-08T19:31:46.291Z,12.50
2022-10-08T19:34:17.995Z,12.60
2022-10-08T19:36:45.147Z,12.60
2022-10-08T19:39:15.796Z,12.60
2022-10-08T19:41:43.502Z,12.60
2022-10-08T19:44:10.635Z,12.50
2022-10-08T19:46:38.543Z,12.50
2022-10-08T19:49:09.162Z,12.60
2022-10-08T19:51:39.822Z,12.60
2022-10-08T19:54:07.285Z,12.60
2022-10-08T19:56:34.467Z,12.60
2022-10-08T19:59:01.636Z,12.50
2022-10-08T20:01:32.283Z,12.50
2022-10-08T20:04:04.069Z,12.50
2022-10-08T20:06:33.473Z,12.50
2022-10-08T20:09:02.152Z,12.50
2022-10-08T20:11:30.963Z,12.40
2022-10-08T20:13:59.742Z,12.40
2022-10-08T20:16:32.820Z,12.40
2022-10-08T20:19:01.448Z,12.40
2022-10-08T20:21:30.160Z,12.40
2022-10-08T20:23:57.554Z,12.40
2022-10-08T20:26:32.153Z,12.30
2022-10-08T20:29:05.629Z,12.30
2022-10-08T20:31:38.307Z,12.30
2022-10-08T20:34:09.607Z,12.20
2022-10-08T20:36:37.351Z,12.10
2022-10-08T20:39:04.928Z,12.00
2022-10-08T20:41:32.585Z,11.90
2022-10-08T20:44:03.293Z,11.80
2022-10-08T20:46:32.583Z,11.80
2022-10-08T20:49:00.114Z,11.70
2022-10-08T20:51:29.135Z,11.60
2022-10-08T20:54:01.834Z,11.60
2022-10-08T20:56:37.089Z,11.50
2022-10-08T20:59:07.678Z,11.50
2022-10-08T21:01:38.892Z,11.50
2022-10-08T21:04:06.957Z,11.50
2022-10-08T21:06:46.425Z,11.60
2022-10-08T21:09:15.778Z,11.60
2022-10-08T21:11:43.950Z,11.60
2022-10-08T21:14:14.755Z,11.60
2022-10-08T21:16:44.459Z,11.70
2022-10-08T21:19:14.212Z,11.70
2022-10-08T21:21:41.662Z,11.70
2022-10-08T21:24:09.019Z,11.70
2022-10-08T21:26:40.939Z,11.70
2022-10-08T21:29:13.672Z,11.70
2022-10-08T21:31:42.028Z,11.70
2022-10-08T21:34:11.782Z,11.70
2022-10-08T21:36:40.135Z,11.60
2022-10-08T21:39:10.552Z,11.50
2022-10-08T21:41:37.669Z,11.50
2022-10-08T21:44:08.478Z,11.40
2022-10-08T21:46:39.917Z,11.40
2022-10-08T21:49:27.361Z,11.30
2022-10-08T21:51:57.234Z,11.20
2022-10-08T21:54:24.631Z,11.20
2022-10-08T21:56:56.063Z,11.20
2022-10-08T21:59:23.366Z,11.10
2022-10-08T22:01:51.270Z,11.10
2022-10-08T22:04:22.327Z,11.10
2022-10-08T22:06:54.376Z,11.00
2022-10-08T22:09:27.579Z,11.00
2022-10-08T22:11:56.966Z,10.90
2022-10-08T22:14:24.314Z,10.80
2022-10-08T22:16:54.286Z,10.80
2022-10-08T22:19:21.682Z,10.70
2022-10-08T22:21:49.016Z,10.70
2022-10-08T22:24:18.317Z,10.70
2022-10-08T22:26:46.973Z,10.60
2022-10-08T22:29:14.838Z,10.50
2022-10-08T22:31:42.235Z,10.50
2022-10-08T22:34:10.394Z,10.40
2022-10-08T22:36:43.722Z,10.40
2022-10-08T22:39:13.531Z,10.30
2022-10-08T22:41:41.119Z,10.20
2022-10-08T22:44:08.247Z,10.20
2022-10-08T22:46:39.888Z,10.20
2022-10-08T22:49:11.597Z,10.20
2022-10-08T22:51:44.130Z,10.10
2022-10-08T22:54:12.470Z,10.10
2022-10-08T22:56:42.165Z,10.00
2022-10-08T22:59:10.300Z,10.00
2022-10-08T23:01:37.487Z,10.00
2022-10-08T23:04:04.995Z,9.90
2022-10-08T23:06:36.236Z,9.90
2022-10-08T23:09:11.331Z,9.90
2022-10-08T23:11:39.143Z,9.90
2022-10-08T23:14:06.551Z,9.80
2022-10-08T23:16:35.915Z,9.80
2022-10-08T23:19:10.053Z,9.80
2022-10-08T23:21:38.023Z,9.80
2022-10-08T23:24:05.920Z,9.80
2022-10-08T23:26:33.157Z,9.80
2022-10-08T23:29:01.427Z,9.80
2022-10-08T23:31:32.339Z,9.80
2022-10-08T23:34:00.278Z,9.80
2022-10-08T23:36:28.892Z,9.70
2022-10-08T23:38:56.627Z,9.70
2022-10-08T23:41:24.428Z,9.60
2022-10-08T23:43:52.491Z,9.60
2022-10-08T23:46:24.956Z,9.50
2022-10-08T23:48:52.481Z,9.50
2022-10-08T23:51:21.591Z,9.40
2022-10-08T23:53:50.278Z,9.40
2022-10-08T23:56:20.544Z,9.30
2022-10-08T23:58:48.127Z,9.30
